createdAt,value
2019-03-31T00:02:21.897Z,99.90
2019-03-31T00:04:49.457Z,99.90
2019-03-31T00:07:16.993Z,99.90
2019-03-31T00:09:44.555Z,99.90
2019-03-31T00:12:12.085Z,99.90
2019-03-31T00:14:39.645Z,99.90
2019-03-31T00:17:07.180Z,99.90
2019-03-31T00:19:34.741Z,99.90
2019-03-31T00:22:02.275Z,99.90
2019-03-31T00:24:29.803Z,99.90
2019-03-31T00:26:57.383Z,99.90
2019-03-31T00:29:25.017Z,99.90
2019-03-31T00:31:52.590Z,99.90
2019-03-31T00:34:20.125Z,99.90
2019-03-31T00:36:47.690Z,99.90
2019-03-31T00:39:15.518Z,99.90
2019-03-31T00:41:43.830Z,99.90
2019-03-31T00:44:11.389Z,99.90
2019-03-31T00:46:38.960Z,99.90
2019-03-31T00:49:06.519Z,99.90
2019-03-31T00:51:34.059Z,99.90
2019-03-31T00:54:02.598Z,99.90
2019-03-31T00:56:30.157Z,99.90
2019-03-31T00:58:57.719Z,99.90
2019-03-31T01:01:36.471Z,99.90
2019-03-31T01:03:55.405Z,99.90
2019-03-31T01:06:22.967Z,99.90
2019-03-31T01:08:50.502Z,99.90
2019-03-31T01:11:18.063Z,99.90
2019-03-31T01:13:45.627Z,99.90
2019-03-31T01:16:13.171Z,99.90
2019-03-31T01:18:40.735Z,99.90
2019-03-31T01:21:08.300Z,99.90
2019-03-31T01:23:35.880Z,99.90
2019-03-31T01:26:03.432Z,99.90
2019-03-31T01:28:30.992Z,99.90
2019-03-31T01:30:58.539Z,99.90
2019-03-31T01:33:26.943Z,99.90
2019-03-31T01:35:54.483Z,99.90
2019-03-31T01:38:22.020Z,99.90
2019-03-31T01:40:49.581Z,99.90
2019-03-31T01:43:17.911Z,99.90
2019-03-31T01:45:45.475Z,99.90
2019-03-31T01:48:13.091Z,99.90
2019-03-31T01:50:40.647Z,99.90
2019-03-31T01:53:08.188Z,99.90
2019-03-31T01:55:35.754Z,99.90
2019-03-31T01:58:03.291Z,99.90
2019-03-31T02:00:31.571Z,99.90
2019-03-31T02:02:59.124Z,99.90
2019-03-31T02:05:26.688Z,99.90
2019-03-31T02:07:54.249Z,99.90
2019-03-31T02:10:21.784Z,99.90
2019-03-31T02:12:50.335Z,99.90
2019-03-31T02:15:17.866Z,99.90
2019-03-31T02:17:45.420Z,99.90
2019-03-31T02:20:12.953Z,99.90
2019-03-31T02:22:41.505Z,99.90
2019-03-31T02:25:09.039Z,99.90
2019-03-31T02:27:36.600Z,99.90
2019-03-31T02:30:04.138Z,99.90
2019-03-31T02:32:31.714Z,99.90
2019-03-31T02:34:59.245Z,99.90
2019-03-31T02:37:26.804Z,99.90
2019-03-31T02:39:54.347Z,99.90
2019-03-31T02:42:21.920Z,99.90
2019-03-31T02:44:49.459Z,99.90
2019-03-31T02:47:16.991Z,99.90
2019-03-31T02:49:44.551Z,99.90
2019-03-31T02:52:12.108Z,99.90
2019-03-31T02:54:40.672Z,99.90
2019-03-31T02:57:08.218Z,99.90
2019-03-31T02:59:35.753Z,99.90
2019-03-31T03:02:03.324Z,99.90
2019-03-31T03:04:30.866Z,99.90
2019-03-31T03:06:58.423Z,99.90
2019-03-31T03:09:26.018Z,99.90
2019-03-31T03:11:53.568Z,99.90
2019-03-31T03:14:21.143Z,99.90
2019-03-31T03:16:48.702Z,99.90
2019-03-31T03:19:16.256Z,99.90
2019-03-31T03:21:43.799Z,99.90
2019-03-31T03:24:11.367Z,99.90
2019-03-31T03:26:38.899Z,99.90
2019-03-31T03:29:06.490Z,99.90
2019-03-31T03:31:34.024Z,99.90
2019-03-31T03:34:01.594Z,99.90
2019-03-31T03:36:29.239Z,99.90
2019-03-31T03:38:57.488Z,99.90
2019-03-31T03:41:25.063Z,99.90
2019-03-31T03:43:56.387Z,99.90
2019-03-31T03:46:20.211Z,99.90
2019-03-31T03:48:47.764Z,99.90
2019-03-31T03:51:15.304Z,99.90
2019-03-31T03:53:42.867Z,99.90
2019-03-31T03:56:10.428Z,99.90
2019-03-31T03:58:37.999Z,99.90
2019-03-31T04:01:05.546Z,99.90
2019-03-31T04:03:33.113Z,99.90
2019-03-31T04:06:00.660Z,99.90
2019-03-31T04:08:30.152Z,99.90
2019-03-31T04:10:59.362Z,99.90
2019-03-31T04:13:26.950Z,99.90
2019-03-31T04:15:54.519Z,99.90
2019-03-31T04:18:22.052Z,99.90
2019-03-31T04:20:49.665Z,99.90
2019-03-31T04:23:17.201Z,99.90
2019-03-31T04:25:44.764Z,99.90
2019-03-31T04:28:12.301Z,99.90
2019-03-31T04:30:40.860Z,99.90
2019-03-31T04:33:09.205Z,99.90
2019-03-31T04:35:36.740Z,99.90
2019-03-31T04:38:04.403Z,99.90
2019-03-31T04:40:32.966Z,99.90
2019-03-31T04:43:00.524Z,99.90
2019-03-31T04:45:28.056Z,99.90
2019-03-31T04:47:56.381Z,99.90
2019-03-31T04:50:24.932Z,99.90
2019-03-31T04:52:52.465Z,99.90
2019-03-31T04:55:20.027Z,99.90
2019-03-31T04:57:48.350Z,99.90
2019-03-31T05:00:15.887Z,99.90
2019-03-31T05:02:43.451Z,99.90
2019-03-31T05:05:11.008Z,99.90
2019-03-31T05:07:38.534Z,99.90
2019-03-31T05:10:06.832Z,99.90
2019-03-31T05:12:35.352Z,99.90
2019-03-31T05:15:02.894Z,99.90
2019-03-31T05:17:30.462Z,99.90
2019-03-31T05:19:58.015Z,99.90
2019-03-31T05:22:25.563Z,99.90
2019-03-31T05:24:53.123Z,99.90
2019-03-31T05:27:20.687Z,99.90
2019-03-31T05:29:48.244Z,99.90
2019-03-31T05:32:15.794Z,99.90
2019-03-31T05:34:43.352Z,99.90
2019-03-31T05:37:10.883Z,99.90
2019-03-31T05:39:39.422Z,99.90
2019-03-31T05:42:06.955Z,99.90
2019-03-31T05:44:34.512Z,99.90
2019-03-31T05:47:02.077Z,99.90
2019-03-31T05:49:29.611Z,99.90
2019-03-31T05:51:57.174Z,99.90
2019-03-31T05:54:24.707Z,99.90
2019-03-31T05:56:52.271Z,99.90
2019-03-31T05:59:19.810Z,99.90
2019-03-31T06:01:47.368Z,99.90
2019-03-31T06:04:15.251Z,99.90
2019-03-31T06:06:42.891Z,99.90
2019-03-31T06:09:12.362Z,99.90
2019-03-31T06:11:40.655Z,99.90
2019-03-31T06:14:08.980Z,99.90
2019-03-31T06:16:36.519Z,99.90
2019-03-31T06:19:04.081Z,99.90
2019-03-31T06:21:31.619Z,99.90
2019-03-31T06:23:59.175Z,99.90
2019-03-31T06:26:26.736Z,99.90
2019-03-31T06:28:54.268Z,99.90
2019-03-31T06:31:21.835Z,99.90
2019-03-31T06:33:50.135Z,99.90
2019-03-31T06:36:17.696Z,99.90
2019-03-31T06:38:45.331Z,99.90
2019-03-31T06:41:12.892Z,99.90
2019-03-31T06:43:41.194Z,99.90
2019-03-31T06:46:08.752Z,99.90
2019-03-31T06:48:36.307Z,99.90
2019-03-31T06:51:03.840Z,99.90
2019-03-31T06:53:31.371Z,99.90
2019-03-31T06:55:58.980Z,99.90
2019-03-31T06:58:26.546Z,99.90
2019-03-31T07:00:54.086Z,99.90
2019-03-31T07:03:21.643Z,99.90
2019-03-31T07:05:49.212Z,99.90
2019-03-31T07:08:16.743Z,99.90
2019-03-31T07:10:44.307Z,99.90
2019-03-31T07:13:11.864Z,99.90
2019-03-31T07:15:39.401Z,99.90
2019-03-31T07:18:07.718Z,99.90
2019-03-31T07:20:35.279Z,99.90
2019-03-31T07:23:02.835Z,99.90
2019-03-31T07:25:30.374Z,99.90
2019-03-31T07:27:57.936Z,99.90
2019-03-31T07:30:25.600Z,99.90
2019-03-31T07:32:53.166Z,99.90
2019-03-31T07:35:20.722Z,99.90
2019-03-31T07:37:48.277Z,99.90
2019-03-31T07:40:16.051Z,99.90
2019-03-31T07:42:43.447Z,99.90
2019-03-31T07:45:11.011Z,99.90
2019-03-31T07:47:39.315Z,99.90
2019-03-31T07:50:07.679Z,99.90
2019-03-31T07:52:35.210Z,99.90
2019-03-31T07:55:02.775Z,99.90
2019-03-31T07:57:30.321Z,99.90
2019-03-31T07:59:57.887Z,99.90
2019-03-31T08:02:26.227Z,99.90
2019-03-31T08:04:53.759Z,99.90
2019-03-31T08:07:21.420Z,99.90
2019-03-31T08:09:48.991Z,99.90
2019-03-31T08:12:16.537Z,99.90
2019-03-31T08:14:44.072Z,99.90
2019-03-31T08:17:11.631Z,99.90
2019-03-31T08:19:39.183Z,99.90
2019-03-31T08:22:06.763Z,99.90
2019-03-31T08:24:50.046Z,99.90
2019-03-31T08:27:17.586Z,99.90
2019-03-31T08:29:48.674Z,99.90
2019-03-31T08:32:13.507Z,99.90
2019-03-31T08:34:41.045Z,99.90
2019-03-31T08:37:08.614Z,99.90
2019-03-31T08:39:36.158Z,99.90
2019-03-31T08:42:03.695Z,99.90
2019-03-31T08:44:31.264Z,99.90
2019-03-31T08:46:58.807Z,99.90
2019-03-31T08:49:26.372Z,99.90
2019-03-31T08:51:53.906Z,99.90
2019-03-31T08:54:21.468Z,99.90
2019-03-31T08:56:49.041Z,99.90
2019-03-31T08:59:16.615Z,99.90
2019-03-31T09:01:44.155Z,99.90
2019-03-31T09:04:11.726Z,99.90
2019-03-31T09:06:39.295Z,99.90
2019-03-31T09:09:07.819Z,99.90
2019-03-31T09:11:36.152Z,99.90
2019-03-31T09:14:03.712Z,99.90
2019-03-31T09:16:31.254Z,99.90
2019-03-31T09:18:58.821Z,99.90
2019-03-31T09:21:26.676Z,99.90
2019-03-31T09:23:54.340Z,99.90
2019-03-31T09:26:21.879Z,99.90
2019-03-31T09:28:50.473Z,99.90
2019-03-31T09:31:19.053Z,99.90
2019-03-31T09:33:46.715Z,99.90
2019-03-31T09:36:16.535Z,99.90
2019-03-31T09:38:41.868Z,99.90
2019-03-31T09:41:09.402Z,99.90
2019-03-31T09:43:36.959Z,99.90
2019-03-31T09:46:04.523Z,99.90
2019-03-31T09:48:32.093Z,99.90
2019-03-31T09:50:59.635Z,99.90
2019-03-31T09:53:27.200Z,99.90
2019-03-31T09:55:54.744Z,99.90
2019-03-31T09:58:22.278Z,99.90
2019-03-31T10:00:49.850Z,99.90
2019-03-31T10:03:17.400Z,99.90
2019-03-31T10:05:47.715Z,99.90
2019-03-31T10:08:12.566Z,99.90
2019-03-31T10:10:41.070Z,99.90
2019-03-31T10:13:08.607Z,99.90
2019-03-31T10:15:36.147Z,99.00
2019-03-31T10:18:03.717Z,98.80
2019-03-31T10:20:31.721Z,98.70
2019-03-31T10:22:58.908Z,98.40
2019-03-31T10:25:26.451Z,98.50
2019-03-31T10:27:54.102Z,97.80
2019-03-31T10:30:30.501Z,98.20
2019-03-31T10:32:58.066Z,97.50
2019-03-31T10:35:25.606Z,96.90
2019-03-31T10:37:53.166Z,96.90
2019-03-31T10:40:20.712Z,96.30
2019-03-31T10:42:49.259Z,95.80
2019-03-31T10:45:16.941Z,96.10
2019-03-31T10:47:44.493Z,96.60
2019-03-31T10:50:13.226Z,95.90
2019-03-31T10:52:40.792Z,95.20
2019-03-31T10:55:08.331Z,95.70
2019-03-31T10:57:35.902Z,95.00
2019-03-31T11:00:06.415Z,95.10
2019-03-31T11:02:33.951Z,94.70
2019-03-31T11:05:01.519Z,95.10
2019-03-31T11:07:29.062Z,94.40
2019-03-31T11:09:58.542Z,94.40
2019-03-31T11:12:26.087Z,94.00
2019-03-31T11:14:53.650Z,94.10
2019-03-31T11:17:21.191Z,93.70
2019-03-31T11:19:48.727Z,93.30
2019-03-31T11:22:16.811Z,92.30
2019-03-31T11:24:45.112Z,92.70
2019-03-31T11:27:12.676Z,92.60
2019-03-31T11:29:40.207Z,92.20
2019-03-31T11:32:07.769Z,92.30
2019-03-31T11:34:35.308Z,90.70
2019-03-31T11:37:13.356Z,90.10
2019-03-31T11:39:31.222Z,90.10
2019-03-31T11:41:58.795Z,89.90
2019-03-31T11:44:27.826Z,90.30
2019-03-31T11:46:54.161Z,89.30
2019-03-31T11:49:21.695Z,89.80
2019-03-31T11:51:49.232Z,88.80
2019-03-31T11:54:16.800Z,88.50
2019-03-31T11:56:45.107Z,85.90
2019-03-31T11:59:12.683Z,85.80
2019-03-31T12:01:40.223Z,86.20
2019-03-31T12:04:07.789Z,86.40
2019-03-31T12:06:35.334Z,85.80
2019-03-31T12:09:02.903Z,85.60
2019-03-31T12:11:30.445Z,83.90
2019-03-31T12:13:58.003Z,84.10
2019-03-31T12:16:25.542Z,84.90
2019-03-31T12:18:53.155Z,84.10
2019-03-31T12:21:20.720Z,84.00
2019-03-31T12:23:48.260Z,82.70
2019-03-31T12:26:15.823Z,82.90
2019-03-31T12:28:43.359Z,82.20
2019-03-31T12:31:10.918Z,82.40
2019-03-31T12:33:38.451Z,80.60
2019-03-31T12:36:06.020Z,80.40
2019-03-31T12:38:33.559Z,80.60
2019-03-31T12:41:01.103Z,80.00
2019-03-31T12:43:28.672Z,79.10
2019-03-31T12:45:56.213Z,78.40
2019-03-31T12:48:25.515Z,79.30
2019-03-31T12:50:53.067Z,79.30
2019-03-31T12:53:20.631Z,77.00
2019-03-31T12:55:59.394Z,76.80
2019-03-31T12:58:16.547Z,76.80
2019-03-31T13:00:44.115Z,76.00
2019-03-31T13:03:11.651Z,75.50
2019-03-31T13:05:39.221Z,75.20
2019-03-31T13:08:07.538Z,74.60
2019-03-31T13:10:35.107Z,74.60
2019-03-31T13:13:02.668Z,74.90
2019-03-31T13:15:30.237Z,72.40
2019-03-31T13:17:57.776Z,72.90
2019-03-31T13:20:25.343Z,73.80
2019-03-31T13:22:52.879Z,71.50
2019-03-31T13:25:20.882Z,71.30
2019-03-31T13:27:48.439Z,70.90
2019-03-31T13:30:16.051Z,70.80
2019-03-31T13:32:44.571Z,70.90
2019-03-31T13:35:13.442Z,69.50
2019-03-31T13:37:41.038Z,68.80
2019-03-31T13:40:08.574Z,70.80
2019-03-31T13:42:36.136Z,71.30
2019-03-31T13:45:05.424Z,70.20
2019-03-31T13:47:32.983Z,70.40
2019-03-31T13:50:00.532Z,70.90
2019-03-31T13:52:28.068Z,71.30
2019-03-31T13:54:55.631Z,71.20
2019-03-31T13:57:23.416Z,70.50
2019-03-31T13:59:50.809Z,68.40
2019-03-31T14:02:19.363Z,67.70
2019-03-31T14:04:51.812Z,67.60
2019-03-31T14:07:14.516Z,69.00
2019-03-31T14:09:42.084Z,69.40
2019-03-31T14:12:09.632Z,69.30
2019-03-31T14:14:37.203Z,66.60
2019-03-31T14:17:04.780Z,67.90
2019-03-31T14:19:32.399Z,65.60
2019-03-31T14:22:00.115Z,64.60
2019-03-31T14:24:27.656Z,66.30
2019-03-31T14:26:55.222Z,64.40
2019-03-31T14:29:22.763Z,63.00
2019-03-31T14:31:51.965Z,63.10
2019-03-31T14:34:17.926Z,63.20
2019-03-31T14:36:45.495Z,62.60
2019-03-31T14:39:17.009Z,60.60
2019-03-31T14:41:41.421Z,60.60
2019-03-31T14:44:09.198Z,61.90
2019-03-31T14:46:37.097Z,60.80
2019-03-31T14:49:04.665Z,62.90
2019-03-31T14:51:32.624Z,62.80
2019-03-31T14:54:00.692Z,63.70
2019-03-31T14:56:28.266Z,64.00
2019-03-31T14:58:55.844Z,60.70
2019-03-31T15:01:23.388Z,61.40
2019-03-31T15:03:51.944Z,59.50
2019-03-31T15:06:19.809Z,58.50
2019-03-31T15:08:54.184Z,57.90
2019-03-31T15:11:15.775Z,57.80
2019-03-31T15:13:43.310Z,58.60
2019-03-31T15:16:11.867Z,58.60
2019-03-31T15:18:39.402Z,58.60
2019-03-31T15:21:06.971Z,58.80
2019-03-31T15:23:34.503Z,58.50
2019-03-31T15:26:02.070Z,58.00
2019-03-31T15:28:29.609Z,55.90
2019-03-31T15:30:58.186Z,53.90
2019-03-31T15:33:25.719Z,52.90
2019-03-31T15:35:53.284Z,52.10
2019-03-31T15:38:20.842Z,51.90
2019-03-31T15:40:48.674Z,50.40
2019-03-31T15:43:16.752Z,50.80
2019-03-31T15:45:44.291Z,50.70
2019-03-31T15:48:11.865Z,50.10
2019-03-31T15:50:39.436Z,49.50
2019-03-31T15:53:07.980Z,48.30
2019-03-31T15:55:35.515Z,49.60
2019-03-31T15:58:05.309Z,51.10
2019-03-31T16:00:30.664Z,50.00
2019-03-31T16:02:59.180Z,49.20
2019-03-31T16:05:26.774Z,49.00
2019-03-31T16:07:54.358Z,49.50
2019-03-31T16:10:21.900Z,48.60
2019-03-31T16:12:50.559Z,49.50
2019-03-31T16:15:18.896Z,50.60
2019-03-31T16:17:46.480Z,50.10
2019-03-31T16:20:14.019Z,52.00
2019-03-31T16:22:41.606Z,52.90
2019-03-31T16:28:06.291Z,54.10
2019-03-31T16:30:33.855Z,54.30
2019-03-31T16:33:01.396Z,55.10
2019-03-31T16:35:28.954Z,55.40
2019-03-31T16:37:56.484Z,55.30
2019-03-31T16:40:24.019Z,55.30
2019-03-31T16:42:52.353Z,56.80
2019-03-31T16:45:19.895Z,56.80
2019-03-31T16:47:47.458Z,56.90
2019-03-31T16:50:14.995Z,57.30
2019-03-31T16:52:42.526Z,57.30
2019-03-31T16:55:10.087Z,56.50
2019-03-31T16:57:37.651Z,56.40
2019-03-31T17:00:05.239Z,57.30
2019-03-31T17:02:32.782Z,58.20
2019-03-31T17:05:00.402Z,57.20
2019-03-31T17:07:27.932Z,57.20
2019-03-31T17:09:55.495Z,58.50
2019-03-31T17:12:23.063Z,58.20
2019-03-31T17:14:50.684Z,58.40
2019-03-31T17:17:18.266Z,58.50
2019-03-31T17:19:45.837Z,58.60
2019-03-31T17:22:13.405Z,58.90
2019-03-31T17:24:41.740Z,59.50
2019-03-31T17:27:09.278Z,59.40
2019-03-31T17:29:36.833Z,59.60
2019-03-31T17:32:04.407Z,60.00
2019-03-31T17:34:32.036Z,60.70
2019-03-31T17:36:59.573Z,61.50
2019-03-31T17:39:27.137Z,62.30
2019-03-31T17:41:54.685Z,63.90
2019-03-31T17:44:22.230Z,64.90
2019-03-31T17:46:49.796Z,65.90
2019-03-31T17:49:18.095Z,69.90
2019-03-31T17:51:46.656Z,69.80
2019-03-31T17:54:14.192Z,71.70
2019-03-31T17:56:41.760Z,72.60
2019-03-31T17:59:10.087Z,72.30
2019-03-31T18:01:37.625Z,72.20
2019-03-31T18:04:06.289Z,73.10
2019-03-31T18:06:33.836Z,74.60
2019-03-31T18:09:01.412Z,75.20
2019-03-31T18:11:28.948Z,75.40
2019-03-31T18:13:57.280Z,76.80
2019-03-31T18:16:24.843Z,76.70
2019-03-31T18:18:52.383Z,77.30
2019-03-31T18:21:19.951Z,78.10
2019-03-31T18:23:47.520Z,79.30
2019-03-31T18:26:15.063Z,79.90
2019-03-31T18:28:43.906Z,80.30
2019-03-31T18:31:10.224Z,81.40
2019-03-31T18:33:37.784Z,82.00
2019-03-31T18:36:05.366Z,82.40
2019-03-31T18:38:32.926Z,83.20
2019-03-31T18:41:03.538Z,83.40
2019-03-31T18:43:28.079Z,84.30
2019-03-31T18:45:55.647Z,84.80
2019-03-31T18:48:23.188Z,85.70
2019-03-31T18:50:50.754Z,85.60
2019-03-31T18:56:16.150Z,85.00
2019-03-31T18:58:49.379Z,85.80
2019-03-31T19:01:17.399Z,86.10
2019-03-31T19:03:45.866Z,87.10
2019-03-31T19:06:18.972Z,87.60
2019-03-31T19:09:03.312Z,87.90
2019-03-31T19:11:30.884Z,89.60
2019-03-31T19:14:14.232Z,87.70
2019-03-31T19:16:47.517Z,88.60
2019-03-31T19:19:18.686Z,89.10
2019-03-31T19:21:48.000Z,90.00
2019-03-31T19:24:33.998Z,89.70
2019-03-31T19:27:04.061Z,89.70
2019-03-31T19:29:39.297Z,90.00
2019-03-31T19:32:26.575Z,90.50
2019-03-31T19:35:11.816Z,90.60
2019-03-31T19:37:45.075Z,91.20
2019-03-31T19:40:18.311Z,91.90
2019-03-31T19:42:56.695Z,91.70
2019-03-31T19:45:25.147Z,91.60
2019-03-31T19:48:03.433Z,91.70
2019-03-31T19:50:31.681Z,91.60
2019-03-31T19:53:00.024Z,91.50
2019-03-31T19:55:45.268Z,91.50
2019-03-31T20:01:12.731Z,92.10
2019-03-31T20:03:47.883Z,92.80
2019-03-31T20:06:16.447Z,92.60
2019-03-31T20:08:44.010Z,93.30
2019-03-31T20:11:16.205Z,93.60
2019-03-31T20:13:48.404Z,93.30
2019-03-31T20:16:21.910Z,93.20
2019-03-31T20:18:51.440Z,92.90
2019-03-31T20:21:32.056Z,93.30
2019-03-31T20:23:55.674Z,93.70
2019-03-31T20:29:19.239Z,93.80
2019-03-31T20:31:56.712Z,94.40
2019-03-31T20:34:31.801Z,94.40
2019-03-31T20:37:18.955Z,94.60
2019-03-31T20:39:56.628Z,94.20
2019-03-31T20:42:38.692Z,94.30
2019-03-31T20:45:06.254Z,94.10
2019-03-31T20:47:33.794Z,94.20
2019-03-31T20:50:01.350Z,94.20
2019-03-31T20:52:28.891Z,94.60
2019-03-31T20:54:56.432Z,95.20
2019-03-31T20:57:24.999Z,95.40
2019-03-31T20:59:52.535Z,94.90
2019-03-31T21:02:20.075Z,94.90
2019-03-31T21:04:47.639Z,95.70
2019-03-31T21:07:15.212Z,95.70
2019-03-31T21:09:45.458Z,96.30
2019-03-31T21:12:12.274Z,96.70
2019-03-31T21:14:39.843Z,97.10
2019-03-31T21:17:07.416Z,96.90
2019-03-31T21:19:34.987Z,96.90
2019-03-31T21:22:02.528Z,96.80
2019-03-31T21:24:30.107Z,97.10
2019-03-31T21:26:57.672Z,97.40
2019-03-31T21:29:25.222Z,97.20
2019-03-31T21:31:52.803Z,97.30
2019-03-31T21:34:20.335Z,97.20
2019-03-31T21:36:47.922Z,97.40
2019-03-31T21:39:15.460Z,97.40
2019-03-31T21:41:43.000Z,97.90
2019-03-31T21:44:10.564Z,98.80
2019-03-31T21:46:38.099Z,99.50
2019-03-31T21:49:05.655Z,99.90
2019-03-31T21:51:33.189Z,99.90
2019-03-31T21:54:00.743Z,99.90
2019-03-31T21:56:28.278Z,99.90
2019-03-31T21:58:55.840Z,99.90
2019-03-31T22:01:23.412Z,99.90
2019-03-31T22:03:50.974Z,99.90
2019-03-31T22:06:18.561Z,99.90
2019-03-31T22:08:46.115Z,99.90
2019-03-31T22:11:13.674Z,99.90
2019-03-31T22:13:41.238Z,99.90
2019-03-31T22:16:09.541Z,99.90
2019-03-31T22:18:37.079Z,99.90
2019-03-31T22:21:05.410Z,99.90
2019-03-31T22:23:32.943Z,99.90
2019-03-31T22:26:00.498Z,99.90
2019-03-31T22:28:28.115Z,99.90
2019-03-31T22:30:55.607Z,99.90
2019-03-31T22:33:24.138Z,99.90
2019-03-31T22:35:57.192Z,99.90
2019-03-31T22:38:25.353Z,99.90
2019-03-31T22:40:52.908Z,99.90
2019-03-31T22:43:20.483Z,99.90
2019-03-31T22:45:48.580Z,99.90
2019-03-31T22:48:16.411Z,99.90
2019-03-31T22:50:44.006Z,99.90
2019-03-31T22:53:11.535Z,99.90
2019-03-31T22:55:39.082Z,99.90
2019-03-31T22:58:06.635Z,99.90
2019-03-31T23:00:34.191Z,99.90
2019-03-31T23:03:01.753Z,99.90
2019-03-31T23:05:29.399Z,99.90
2019-03-31T23:07:56.964Z,99.90
2019-03-31T23:10:25.032Z,99.90
2019-03-31T23:12:52.636Z,99.90
2019-03-31T23:15:20.184Z,99.90
2019-03-31T23:17:47.747Z,99.90
2019-03-31T23:20:15.274Z,99.90
2019-03-31T23:22:43.839Z,99.90
2019-03-31T23:25:12.216Z,99.90
2019-03-31T23:27:39.778Z,99.90
2019-03-31T23:30:07.322Z,99.90
2019-03-31T23:32:34.878Z,99.90
2019-03-31T23:35:02.415Z,99.90
2019-03-31T23:37:29.975Z,99.90
2019-03-31T23:39:57.519Z,99.90
2019-03-31T23:42:25.818Z,99.90
2019-03-31T23:44:53.384Z,99.90
2019-03-31T23:47:21.020Z,99.90
2019-03-31T23:49:48.547Z,99.90
2019-03-31T23:52:16.111Z,99.90
2019-03-31T23:54:43.672Z,99.90
2019-03-31T23:57:11.293Z,99.90
2019-03-31T23:59:38.856Z,99.90
